Time;durP1;ratioP1;P1;durP2;ratioP2;P2;SDS_P1;SDS_P2;PMS_P1;PMS_P2;Temp;Humidity;BMP_temperature;BMP_pressure;BME280_temperature;BME280_humidity;BME280_pressure;Samples;Min_cycle;Max_cycle;Signal;HPM_P1;HPM_P2
2023/10/19 00:00:19;;;;;;;18.03;15.97;;;;;;;;;;5023248;28;20251;-88
2023/10/19 00:03:02;;;;;;;16.57;14.97;;;;;;;;;;5027463;28;20231;-88
2023/10/19 00:05:32;;;;;;;16.67;15.07;;;;;;;;;;5043877;28;20183;-89
2023/10/19 00:08:46;;;;;;;18.33;16.57;;;;;;;;;;5038056;28;20250;-88
2023/10/19 00:11:04;;;;;;;19.00;17.10;;;;;;;;;;5033844;28;20184;-89
2023/10/19 00:13:53;;;;;;;19.57;17.67;;;;;;;;;;5043075;28;20203;-88
2023/10/19 00:16:40;;;;;;;18.80;17.00;;;;;;;;;;5021352;28;20188;-89
2023/10/19 00:19:09;;;;;;;19.17;17.17;;;;;;;;;;5026901;28;20275;-89
2023/10/19 00:21:50;;;;;;;20.20;18.10;;;;;;;;;;5034852;28;20196;-88
2023/10/19 00:24:42;;;;;;;20.33;18.43;;;;;;;;;;5029610;28;20176;-89
2023/10/19 00:27:18;;;;;;;20.47;18.57;;;;;;;;;;5041902;28;20271;-89
2023/10/19 00:29:52;;;;;;;22.40;20.10;;;;;;;;;;5029797;28;20200;-90
2023/10/19 00:32:24;;;;;;;22.27;20.10;;;;;;;;;;5022493;28;20199;-90
2023/10/19 00:40:27;;;;;;;23.70;21.40;;;;;;;;;;5075018;28;20280;-87
2023/10/19 00:42:52;;;;;;;24.50;22.00;;;;;;;;;;5073617;28;20272;-88
2023/10/19 00:45:24;;;;;;;26.20;23.67;;;;;;;;;;5027118;28;20194;-88
2023/10/19 00:47:53;;;;;;;26.07;23.50;;;;;;;;;;5072818;28;20218;-87
2023/10/19 00:50:22;;;;;;;27.47;24.50;;;;;;;;;;5037151;28;20214;-90
2023/10/19 00:52:51;;;;;;;26.40;23.70;;;;;;;;;;5051251;28;20171;-89
2023/10/19 00:55:19;;;;;;;27.10;24.23;;;;;;;;;;5040688;28;20221;-90
2023/10/19 00:57:49;;;;;;;27.90;24.70;;;;;;;;;;5056856;28;20211;-89
2023/10/19 01:00:30;;;;;;;26.27;23.50;;;;;;;;;;5049379;28;20187;-89
2023/10/19 01:02:59;;;;;;;29.07;24.97;;;;;;;;;;5064567;28;20212;-89
2023/10/19 01:05:32;;;;;;;26.07;23.53;;;;;;;;;;5058067;28;20273;-89
2023/10/19 01:08:00;;;;;;;28.50;25.40;;;;;;;;;;5037789;28;20184;-84
2023/10/19 01:10:28;;;;;;;27.60;24.50;;;;;;;;;;5028730;28;20195;-84
2023/10/19 01:12:54;;;;;;;27.53;24.63;;;;;;;;;;5056389;28;20179;-84
2023/10/19 01:17:57;;;;;;;30.53;25.73;;;;;;;;;;5063415;28;20184;-84
2023/10/19 01:25:34;;;;;;;29.17;25.93;;;;;;;;;;5071989;28;20222;-89
2023/10/19 01:28:07;;;;;;;28.77;24.97;;;;;;;;;;5055384;28;20261;-89
2023/10/19 01:30:33;;;;;;;27.97;24.53;;;;;;;;;;5038583;28;20184;-89
2023/10/19 01:32:59;;;;;;;27.23;24.47;;;;;;;;;;5073569;28;20202;-89
2023/10/19 01:35:26;;;;;;;27.07;23.73;;;;;;;;;;5056429;28;20249;-89
2023/10/19 01:37:53;;;;;;;29.23;25.80;;;;;;;;;;5056626;28;20260;-89
2023/10/19 01:40:21;;;;;;;26.57;23.63;;;;;;;;;;5073202;28;20191;-87
2023/10/19 01:42:47;;;;;;;26.67;23.43;;;;;;;;;;5044969;28;20207;-88
2023/10/19 01:45:14;;;;;;;26.47;23.77;;;;;;;;;;5072586;28;20270;-88
2023/10/19 01:47:40;;;;;;;29.63;24.07;;;;;;;;;;5057016;28;20183;-87
2023/10/19 01:50:13;;;;;;;26.30;23.50;;;;;;;;;;5073238;28;20237;-88
2023/10/19 01:52:39;;;;;;;25.97;23.27;;;;;;;;;;5056611;28;20207;-88
2023/10/19 01:55:08;;;;;;;26.57;23.73;;;;;;;;;;5072869;28;20278;-87
2023/10/19 01:57:34;;;;;;;27.27;24.33;;;;;;;;;;5040095;28;20183;-84
2023/10/19 02:00:10;;;;;;;28.40;25.30;;;;;;;;;;5039259;28;20199;-85
2023/10/19 02:02:36;;;;;;;30.53;26.07;;;;;;;;;;5036802;28;20265;-84
2023/10/19 02:05:08;;;;;;;29.70;26.53;;;;;;;;;;5036370;28;20275;-84
2023/10/19 02:07:34;;;;;;;31.50;25.83;;;;;;;;;;5056016;28;20176;-84
2023/10/19 02:10:01;;;;;;;26.93;24.07;;;;;;;;;;5055983;28;20188;-85
2023/10/19 02:12:27;;;;;;;29.17;25.97;;;;;;;;;;5039684;28;20191;-85
2023/10/19 02:14:53;;;;;;;27.60;24.80;;;;;;;;;;5044600;28;20194;-88
2023/10/19 02:17:19;;;;;;;27.07;24.30;;;;;;;;;;5060267;28;20190;-87
2023/10/19 02:19:45;;;;;;;26.43;23.63;;;;;;;;;;5059766;28;20183;-87
2023/10/19 02:22:12;;;;;;;27.73;24.33;;;;;;;;;;5043824;28;20215;-87
2023/10/19 02:24:39;;;;;;;27.60;24.23;;;;;;;;;;5060463;28;20282;-87
2023/10/19 02:27:05;;;;;;;28.77;23.77;;;;;;;;;;5076089;28;20187;-87
2023/10/19 02:29:31;;;;;;;26.83;23.97;;;;;;;;;;5043585;28;20277;-90
2023/10/19 02:32:03;;;;;;;29.40;24.07;;;;;;;;;;5043635;28;20180;-89
2023/10/19 02:34:30;;;;;;;28.50;25.13;;;;;;;;;;5060002;28;20180;-89
2023/10/19 02:36:56;;;;;;;28.27;25.20;;;;;;;;;;5043752;28;20275;-90
2023/10/19 02:39:28;;;;;;;27.77;24.27;;;;;;;;;;5056303;28;20322;-89
2023/10/19 02:41:54;;;;;;;28.20;23.87;;;;;;;;;;5072340;28;20225;-89
2023/10/19 02:44:25;;;;;;;28.00;23.47;;;;;;;;;;5079500;28;20327;-89
2023/10/19 02:47:15;;;;;;;29.63;25.37;;;;;;;;;;5064165;28;20244;-89
2023/10/19 02:49:43;;;;;;;27.50;24.30;;;;;;;;;;5096544;28;20325;-89
2023/10/19 02:52:12;;;;;;;29.37;24.27;;;;;;;;;;5070585;28;20196;-89
2023/10/19 02:54:39;;;;;;;31.73;24.27;;;;;;;;;;5071466;28;20190;-89
2023/10/19 02:57:06;;;;;;;29.07;23.20;;;;;;;;;;5079831;28;20232;-89
2023/10/19 02:59:33;;;;;;;27.03;22.67;;;;;;;;;;5079729;28;20269;-89
2023/10/19 03:04:38;;;;;;;24.13;21.63;;;;;;;;;;5093233;28;20184;-82
2023/10/19 03:07:04;;;;;;;27.17;22.13;;;;;;;;;;5079119;28;20179;-82
2023/10/19 03:09:36;;;;;;;23.23;20.80;;;;;;;;;;5062397;28;20193;-82
2023/10/19 03:12:05;;;;;;;28.70;21.40;;;;;;;;;;5079091;28;20218;-82
2023/10/19 03:14:34;;;;;;;25.13;19.97;;;;;;;;;;5078691;28;20190;-82
2023/10/19 03:17:00;;;;;;;23.27;20.20;;;;;;;;;;5060961;28;20203;-82
2023/10/19 03:19:27;;;;;;;22.17;19.77;;;;;;;;;;5067029;28;20178;-82
2023/10/19 03:22:00;;;;;;;21.30;19.00;;;;;;;;;;5067333;28;20234;-82
2023/10/19 03:24:42;;;;;;;21.03;18.87;;;;;;;;;;5078493;28;20187;-82
2023/10/19 03:27:15;;;;;;;23.23;19.60;;;;;;;;;;5054838;28;20187;-83
2023/10/19 03:29:48;;;;;;;22.03;18.93;;;;;;;;;;5077517;28;20228;-82
2023/10/19 03:32:15;;;;;;;27.37;19.70;;;;;;;;;;5062140;28;20290;-82
2023/10/19 03:34:49;;;;;;;22.43;18.80;;;;;;;;;;5079012;28;20239;-82
2023/10/19 03:37:17;;;;;;;19.53;17.30;;;;;;;;;;5078685;28;20193;-82
2023/10/19 03:39:45;;;;;;;23.00;18.60;;;;;;;;;;5066792;28;20227;-82
2023/10/19 03:42:13;;;;;;;19.27;16.00;;;;;;;;;;5072054;28;20226;-82
2023/10/19 03:47:11;;;;;;;19.70;14.70;;;;;;;;;;5069670;28;20180;-83
2023/10/19 03:49:39;;;;;;;15.13;13.40;;;;;;;;;;5055404;28;20318;-82
2023/10/19 03:54:40;;;;;;;15.67;13.40;;;;;;;;;;5075953;28;20183;-82
2023/10/19 03:57:19;;;;;;;14.73;11.50;;;;;;;;;;5091504;28;20179;-82
2023/10/19 03:59:45;;;;;;;13.97;9.43;;;;;;;;;;5058129;28;20195;-83
2023/10/19 04:02:16;;;;;;;9.53;7.70;;;;;;;;;;5091926;28;20207;-83
2023/10/19 04:04:47;;;;;;;14.13;8.20;;;;;;;;;;5090735;28;20236;-83
2023/10/19 04:12:35;;;;;;;12.00;8.00;;;;;;;;;;5089246;28;20206;-89
2023/10/19 04:15:16;;;;;;;16.37;9.13;;;;;;;;;;5073986;28;20190;-90
2023/10/19 04:17:42;;;;;;;17.93;9.20;;;;;;;;;;5078954;28;20191;-89
2023/10/19 04:22:44;;;;;;;14.73;11.30;;;;;;;;;;5090835;28;20218;-89
2023/10/19 04:25:12;;;;;;;15.57;11.97;;;;;;;;;;5091662;28;20179;-89
2023/10/19 04:27:42;;;;;;;16.57;12.83;;;;;;;;;;5068537;28;20233;-89
2023/10/19 04:30:15;;;;;;;13.23;11.87;;;;;;;;;;5058609;28;20198;-89
2023/10/19 04:32:45;;;;;;;17.90;12.57;;;;;;;;;;5093083;28;20182;-90
2023/10/19 04:35:14;;;;;;;15.87;13.37;;;;;;;;;;5072173;28;20180;-90
2023/10/19 04:37:44;;;;;;;15.90;13.67;;;;;;;;;;5055653;28;20219;-90
2023/10/19 04:40:11;;;;;;;17.93;13.03;;;;;;;;;;5091524;28;20237;-90
2023/10/19 04:42:38;;;;;;;16.30;13.80;;;;;;;;;;5074458;28;20222;-90
2023/10/19 04:45:05;;;;;;;17.03;13.13;;;;;;;;;;5084143;28;20191;-83
2023/10/19 04:47:31;;;;;;;15.47;12.80;;;;;;;;;;5070527;28;20187;-83
2023/10/19 04:49:57;;;;;;;15.33;12.33;;;;;;;;;;5069425;28;20188;-84
2023/10/19 04:52:23;;;;;;;16.80;13.30;;;;;;;;;;5088115;22;20231;-77
2023/10/19 04:54:49;;;;;;;14.57;13.03;;;;;;;;;;5065304;28;20195;-77
2023/10/19 04:57:15;;;;;;;15.67;12.73;;;;;;;;;;5056722;28;20192;-81
2023/10/19 04:59:45;;;;;;;16.53;12.47;;;;;;;;;;5053105;28;20233;-78
2023/10/19 05:02:11;;;;;;;18.83;13.30;;;;;;;;;;5073895;28;20199;-81
2023/10/19 05:04:37;;;;;;;14.57;13.00;;;;;;;;;;5059542;28;20269;-76
2023/10/19 05:07:03;;;;;;;16.40;12.73;;;;;;;;;;5065403;28;20215;-75
2023/10/19 05:09:30;;;;;;;16.27;11.87;;;;;;;;;;5073297;28;20175;-75
2023/10/19 05:11:56;;;;;;;15.60;12.67;;;;;;;;;;5091060;28;20182;-75
2023/10/19 05:14:23;;;;;;;17.00;12.30;;;;;;;;;;5087939;28;20187;-77
2023/10/19 05:16:49;;;;;;;14.20;12.70;;;;;;;;;;5071134;28;20187;-77
2023/10/19 05:19:15;;;;;;;13.20;11.87;;;;;;;;;;5067341;28;20184;-75
2023/10/19 05:21:41;;;;;;;15.87;11.67;;;;;;;;;;5036973;28;20211;-76
2023/10/19 05:24:07;;;;;;;13.37;12.00;;;;;;;;;;5042748;28;20183;-76
2023/10/19 05:26:36;;;;;;;17.13;11.50;;;;;;;;;;5054532;28;20192;-76
2023/10/19 05:29:02;;;;;;;16.17;10.87;;;;;;;;;;5054174;28;20222;-76
2023/10/19 05:31:31;;;;;;;13.20;10.93;;;;;;;;;;5072995;28;20186;-76
2023/10/19 05:33:57;;;;;;;16.93;11.33;;;;;;;;;;5057045;28;20209;-76
2023/10/19 05:36:24;;;;;;;14.77;11.30;;;;;;;;;;5072842;28;20253;-76
2023/10/19 05:38:51;;;;;;;16.93;12.50;;;;;;;;;;5056471;28;20183;-76
2023/10/19 05:41:18;;;;;;;17.67;12.30;;;;;;;;;;5056538;28;20252;-76
2023/10/19 05:43:44;;;;;;;18.13;13.35;;;;;;;;;;5076317;28;20418;-76
2023/10/19 05:46:10;;;;;;;18.60;12.07;;;;;;;;;;5073562;28;20183;-76
2023/10/19 05:48:36;;;;;;;16.07;10.90;;;;;;;;;;5052239;28;20176;-77
2023/10/19 05:51:02;;;;;;;14.07;10.60;;;;;;;;;;5074432;28;20190;-77
2023/10/19 05:53:30;;;;;;;13.17;10.23;;;;;;;;;;5075379;28;20283;-77
2023/10/19 05:55:56;;;;;;;14.47;11.00;;;;;;;;;;5074813;28;20250;-77
2023/10/19 05:58:22;;;;;;;13.23;10.83;;;;;;;;;;5092958;28;20202;-77
2023/10/19 06:00:49;;;;;;;13.97;10.90;;;;;;;;;;5073699;28;20183;-77
2023/10/19 06:03:17;;;;;;;17.27;11.13;;;;;;;;;;5074746;28;20186;-77
2023/10/19 06:05:43;;;;;;;12.60;10.20;;;;;;;;;;5056253;28;20332;-77
2023/10/19 06:08:11;;;;;;;14.63;10.33;;;;;;;;;;5056046;28;20179;-75
2023/10/19 06:10:39;;;;;;;14.83;10.10;;;;;;;;;;5090748;28;20187;-75
2023/10/19 06:13:09;;;;;;;16.43;9.87;;;;;;;;;;5059646;28;20224;-75
2023/10/19 06:15:35;;;;;;;10.97;9.30;;;;;;;;;;5076338;28;20178;-75
2023/10/19 06:18:03;;;;;;;12.00;9.70;;;;;;;;;;5056085;28;20197;-75
2023/10/19 06:20:29;;;;;;;13.47;9.40;;;;;;;;;;5064162;28;20190;-76
2023/10/19 06:22:56;;;;;;;12.67;9.13;;;;;;;;;;5092609;28;20238;-82
2023/10/19 06:25:23;;;;;;;12.07;8.87;;;;;;;;;;5081963;28;20193;-81
2023/10/19 06:27:49;;;;;;;15.43;9.00;;;;;;;;;;5059073;28;20190;-82
2023/10/19 06:30:21;;;;;;;13.70;9.10;;;;;;;;;;5069417;28;20182;-83
2023/10/19 06:32:51;;;;;;;14.97;9.27;;;;;;;;;;5060567;28;20214;-82
2023/10/19 06:35:18;;;;;;;13.37;8.37;;;;;;;;;;5078858;28;20179;-82
2023/10/19 06:37:44;;;;;;;11.30;8.90;;;;;;;;;;5076040;28;20182;-82
2023/10/19 06:40:17;;;;;;;13.10;8.73;;;;;;;;;;5094049;28;20231;-82
2023/10/19 06:42:47;;;;;;;11.47;9.10;;;;;;;;;;5088851;28;20209;-82
2023/10/19 06:45:16;;;;;;;14.33;8.60;;;;;;;;;;5080206;28;20189;-83
2023/10/19 06:47:44;;;;;;;15.13;9.20;;;;;;;;;;5075540;28;20175;-83
2023/10/19 06:50:10;;;;;;;13.53;9.23;;;;;;;;;;5093372;28;20186;-83
2023/10/19 06:52:40;;;;;;;11.80;8.77;;;;;;;;;;5075588;28;20241;-83
2023/10/19 06:55:28;;;;;;;10.60;8.13;;;;;;;;;;5076313;28;20242;-83
2023/10/19 06:57:55;;;;;;;14.87;7.87;;;;;;;;;;5076153;28;20189;-85
2023/10/19 07:00:22;;;;;;;13.40;8.03;;;;;;;;;;5076328;28;20259;-84
2023/10/19 07:02:49;;;;;;;12.17;7.40;;;;;;;;;;5097490;28;20202;-84
2023/10/19 07:05:20;;;;;;;11.40;7.50;;;;;;;;;;5053697;28;20193;-82
2023/10/19 07:07:46;;;;;;;12.47;7.83;;;;;;;;;;5059752;28;20240;-82
2023/10/19 07:10:13;;;;;;;11.07;7.90;;;;;;;;;;5059157;28;20179;-83
2023/10/19 07:12:41;;;;;;;13.80;7.57;;;;;;;;;;5076611;28;20247;-79
2023/10/19 07:15:07;;;;;;;14.60;7.43;;;;;;;;;;5062384;28;20225;-78
2023/10/19 07:17:39;;;;;;;12.67;7.57;;;;;;;;;;5061591;28;20194;-78
2023/10/19 07:20:06;;;;;;;13.30;7.13;;;;;;;;;;5078645;28;20203;-78
2023/10/19 07:22:33;;;;;;;9.97;6.90;;;;;;;;;;5073392;28;20214;-78
2023/10/19 07:24:59;;;;;;;14.20;6.97;;;;;;;;;;5064061;28;20206;-78
2023/10/19 07:27:28;;;;;;;15.90;6.83;;;;;;;;;;5092465;28;20194;-78
2023/10/19 07:29:54;;;;;;;10.17;6.50;;;;;;;;;;5076003;28;20183;-78
2023/10/19 07:32:21;;;;;;;12.13;6.67;;;;;;;;;;5062376;28;20270;-78
2023/10/19 07:34:47;;;;;;;10.97;6.40;;;;;;;;;;5062246;28;20191;-78
2023/10/19 07:37:17;;;;;;;14.17;6.70;;;;;;;;;;5078549;28;20195;-78
2023/10/19 07:39:52;;;;;;;13.00;6.00;;;;;;;;;;5075833;28;20182;-79
2023/10/19 07:42:18;;;;;;;12.83;5.73;;;;;;;;;;5062268;28;20210;-79
2023/10/19 07:44:44;;;;;;;9.37;5.97;;;;;;;;;;5078254;28;20261;-79
2023/10/19 07:47:11;;;;;;;13.93;6.27;;;;;;;;;;5078050;28;20185;-82
2023/10/19 07:49:38;;;;;;;12.60;5.83;;;;;;;;;;5077927;28;20182;-82
2023/10/19 07:52:06;;;;;;;9.00;5.37;;;;;;;;;;5078005;28;20227;-83
2023/10/19 07:54:32;;;;;;;10.57;5.40;;;;;;;;;;5095919;28;20186;-82
2023/10/19 07:57:03;;;;;;;16.83;5.43;;;;;;;;;;5077728;28;20214;-82
2023/10/19 07:59:29;;;;;;;11.43;5.30;;;;;;;;;;5062062;28;20246;-82
2023/10/19 08:01:55;;;;;;;12.80;4.70;;;;;;;;;;5061204;28;20332;-82
2023/10/19 08:04:21;;;;;;;7.53;4.43;;;;;;;;;;5078164;28;20197;-79
2023/10/19 08:06:47;;;;;;;16.30;5.17;;;;;;;;;;5077914;28;20178;-79
2023/10/19 08:09:13;;;;;;;11.40;4.40;;;;;;;;;;5061400;28;20232;-79
2023/10/19 08:11:42;;;;;;;11.97;4.10;;;;;;;;;;5057131;28;20195;-79
2023/10/19 08:14:08;;;;;;;6.63;3.80;;;;;;;;;;5067392;28;20238;-79
2023/10/19 08:16:34;;;;;;;10.47;3.73;;;;;;;;;;5087112;28;20195;-79
2023/10/19 08:19:00;;;;;;;16.17;3.60;;;;;;;;;;5076987;28;20240;-79
2023/10/19 08:21:28;;;;;;;16.47;3.93;;;;;;;;;;5077675;28;20202;-79
2023/10/19 08:23:55;;;;;;;12.60;3.23;;;;;;;;;;5077940;28;20183;-79
2023/10/19 08:26:21;;;;;;;13.77;3.80;;;;;;;;;;5076812;28;20179;-79
2023/10/19 08:28:47;;;;;;;10.67;3.60;;;;;;;;;;5095010;28;20206;-79
2023/10/19 08:31:14;;;;;;;9.07;3.30;;;;;;;;;;5060435;28;20186;-79
2023/10/19 08:33:41;;;;;;;9.20;3.27;;;;;;;;;;5060694;28;20194;-79
2023/10/19 08:36:07;;;;;;;13.53;3.17;;;;;;;;;;5056179;28;20191;-78
2023/10/19 08:38:33;;;;;;;12.47;3.47;;;;;;;;;;5074248;28;20181;-78
2023/10/19 08:40:59;;;;;;;10.03;2.87;;;;;;;;;;5056993;28;20183;-78
2023/10/19 08:43:25;;;;;;;14.50;3.43;;;;;;;;;;5060319;28;20186;-78
2023/10/19 08:45:52;;;;;;;10.73;3.13;;;;;;;;;;5063892;28;20209;-78
2023/10/19 08:48:18;;;;;;;9.40;2.87;;;;;;;;;;5076688;28;20212;-78
2023/10/19 08:50:46;;;;;;;8.83;3.43;;;;;;;;;;5076708;28;20223;-78
2023/10/19 08:53:14;;;;;;;10.83;3.40;;;;;;;;;;5089543;28;20223;-77
2023/10/19 08:55:40;;;;;;;10.00;3.37;;;;;;;;;;5064204;28;20273;-77
2023/10/19 08:58:06;;;;;;;12.77;4.20;;;;;;;;;;5076624;28;20186;-77
2023/10/19 09:00:49;;;;;;;10.33;4.23;;;;;;;;;;5060342;28;20213;-77
2023/10/19 09:03:16;;;;;;;9.17;4.63;;;;;;;;;;5060105;28;20214;-77
2023/10/19 09:05:42;;;;;;;12.53;4.67;;;;;;;;;;5075529;28;20182;-77
2023/10/19 09:08:09;;;;;;;11.97;4.80;;;;;;;;;;5046327;28;20199;-77
2023/10/19 09:10:36;;;;;;;13.70;5.10;;;;;;;;;;5056866;28;20187;-78
2023/10/19 09:13:09;;;;;;;12.47;5.43;;;;;;;;;;5074384;28;20175;-78
2023/10/19 09:15:36;;;;;;;16.07;4.87;;;;;;;;;;5074472;28;20183;-78
2023/10/19 09:18:18;;;;;;;10.03;4.67;;;;;;;;;;5056756;28;20194;-78
2023/10/19 09:21:07;;;;;;;14.30;4.33;;;;;;;;;;5060203;28;20205;-78
2023/10/19 09:23:33;;;;;;;11.40;4.50;;;;;;;;;;5074772;28;20220;-78
2023/10/19 09:26:03;;;;;;;15.23;4.43;;;;;;;;;;5057280;28;20183;-78
2023/10/19 09:28:29;;;;;;;8.97;4.47;;;;;;;;;;5057339;28;20218;-78
2023/10/19 09:30:56;;;;;;;11.50;4.03;;;;;;;;;;5073937;28;20186;-78
2023/10/19 09:33:24;;;;;;;11.57;4.13;;;;;;;;;;5075578;28;20183;-78
2023/10/19 09:35:56;;;;;;;13.77;4.87;;;;;;;;;;5089477;28;20250;-78
2023/10/19 09:38:22;;;;;;;10.43;4.50;;;;;;;;;;5060637;28;20190;-78
2023/10/19 09:40:49;;;;;;;10.07;4.30;;;;;;;;;;5093871;28;20186;-78
2023/10/19 09:43:35;;;;;;;9.87;4.30;;;;;;;;;;5076576;28;20207;-77
2023/10/19 09:46:07;;;;;;;9.90;4.30;;;;;;;;;;5076199;28;20224;-77
2023/10/19 09:48:36;;;;;;;10.47;4.33;;;;;;;;;;5090602;28;20175;-77
2023/10/19 09:51:03;;;;;;;9.30;4.40;;;;;;;;;;5072629;28;20179;-77
2023/10/19 09:53:31;;;;;;;10.13;4.13;;;;;;;;;;5055868;28;20227;-77
2023/10/19 09:56:00;;;;;;;9.70;4.10;;;;;;;;;;5072684;28;20232;-77
2023/10/19 09:58:29;;;;;;;11.03;4.70;;;;;;;;;;5075450;28;20171;-77
2023/10/19 10:00:57;;;;;;;8.17;4.20;;;;;;;;;;5075524;28;20178;-82
2023/10/19 10:03:42;;;;;;;11.83;3.93;;;;;;;;;;5075157;28;20222;-82
2023/10/19 10:06:08;;;;;;;12.30;4.10;;;;;;;;;;5075821;28;20189;-82
2023/10/19 10:08:37;;;;;;;9.90;3.20;;;;;;;;;;5075623;28;20253;-82
2023/10/19 10:11:22;;;;;;;12.57;3.40;;;;;;;;;;5093980;28;20221;-82
2023/10/19 10:13:51;;;;;;;9.17;3.57;;;;;;;;;;5075900;28;20189;-82
2023/10/19 10:16:18;;;;;;;9.70;3.50;;;;;;;;;;5075957;28;20183;-79
2023/10/19 10:18:48;;;;;;;13.93;3.70;;;;;;;;;;5072110;28;20214;-79
2023/10/19 10:21:16;;;;;;;9.93;3.50;;;;;;;;;;5073117;28;20182;-79
2023/10/19 10:23:59;;;;;;;8.77;3.17;;;;;;;;;;5093758;28;20163;-79
2023/10/19 10:26:26;;;;;;;11.23;3.50;;;;;;;;;;5093743;28;20174;-79
2023/10/19 10:29:11;;;;;;;7.43;3.07;;;;;;;;;;5072452;28;20183;-79
2023/10/19 10:31:45;;;;;;;12.30;3.50;;;;;;;;;;5075969;28;20182;-79
2023/10/19 10:34:12;;;;;;;11.57;3.30;;;;;;;;;;5093789;28;20178;-82
2023/10/19 10:37:05;;;;;;;10.17;3.33;;;;;;;;;;5079391;28;20210;-82
2023/10/19 10:39:31;;;;;;;11.50;3.77;;;;;;;;;;5083851;28;20178;-82
2023/10/19 10:41:58;;;;;;;11.53;3.90;;;;;;;;;;5076048;28;20218;-83
2023/10/19 10:44:40;;;;;;;9.90;3.53;;;;;;;;;;5059548;28;20184;-83
2023/10/19 10:47:09;;;;;;;9.37;3.83;;;;;;;;;;5077335;28;20189;-83
2023/10/19 10:49:36;;;;;;;9.97;3.90;;;;;;;;;;5059920;28;20190;-79
2023/10/19 10:52:02;;;;;;;10.63;3.47;;;;;;;;;;5066419;28;20226;-79
2023/10/19 10:54:28;;;;;;;10.80;4.13;;;;;;;;;;5079135;28;20212;-79
2023/10/19 10:56:54;;;;;;;11.97;3.60;;;;;;;;;;5079022;28;20187;-79
2023/10/19 10:59:20;;;;;;;7.53;3.30;;;;;;;;;;5080707;28;20221;-79
2023/10/19 11:01:46;;;;;;;11.67;3.53;;;;;;;;;;5042431;28;20207;-79
2023/10/19 11:04:14;;;;;;;10.13;3.60;;;;;;;;;;5076895;28;20175;-79
2023/10/19 11:06:51;;;;;;;9.97;3.70;;;;;;;;;;5070357;28;20186;-79
2023/10/19 11:09:21;;;;;;;11.20;3.87;;;;;;;;;;5094321;28;20250;-79
2023/10/19 11:11:49;;;;;;;15.43;4.60;;;;;;;;;;5103154;28;20200;-79
2023/10/19 11:14:15;;;;;;;11.83;4.10;;;;;;;;;;5081408;28;20191;-79
2023/10/19 11:16:43;;;;;;;12.83;4.67;;;;;;;;;;5058475;28;20183;-79
2023/10/19 11:19:09;;;;;;;12.60;3.80;;;;;;;;;;5095535;28;20257;-79
2023/10/19 11:21:36;;;;;;;12.40;4.10;;;;;;;;;;5063257;28;20229;-78
2023/10/19 11:24:02;;;;;;;11.67;4.70;;;;;;;;;;5075546;28;20278;-79
2023/10/19 11:26:29;;;;;;;12.47;4.43;;;;;;;;;;5076500;28;20171;-79
2023/10/19 11:28:58;;;;;;;10.60;3.90;;;;;;;;;;5067947;28;20225;-79
2023/10/19 11:31:24;;;;;;;11.67;3.73;;;;;;;;;;5061468;28;20228;-79
2023/10/19 11:33:53;;;;;;;11.03;3.73;;;;;;;;;;5078507;28;20179;-79
2023/10/19 11:36:20;;;;;;;16.07;4.40;;;;;;;;;;5087034;28;20217;-79
2023/10/19 11:38:47;;;;;;;12.70;4.33;;;;;;;;;;5075152;28;20215;-79
2023/10/19 11:41:13;;;;;;;9.20;4.13;;;;;;;;;;5075166;28;20187;-79
2023/10/19 11:43:40;;;;;;;16.73;4.43;;;;;;;;;;5078150;28;20185;-79
2023/10/19 11:46:06;;;;;;;10.37;3.57;;;;;;;;;;5057803;28;20167;-79
2023/10/19 11:48:33;;;;;;;11.27;4.13;;;;;;;;;;5058288;28;20179;-79
2023/10/19 11:50:59;;;;;;;10.93;4.20;;;;;;;;;;5065388;28;20263;-79
2023/10/19 11:53:25;;;;;;;10.03;4.07;;;;;;;;;;5063600;28;20262;-79
2023/10/19 11:55:51;;;;;;;13.33;4.13;;;;;;;;;;5081713;28;20190;-79
2023/10/19 11:58:17;;;;;;;10.83;4.10;;;;;;;;;;5058126;28;20191;-77
2023/10/19 12:00:43;;;;;;;10.47;4.50;;;;;;;;;;5071839;28;20187;-77
2023/10/19 12:03:16;;;;;;;11.77;4.47;;;;;;;;;;5057813;28;20218;-79
2023/10/19 12:05:42;;;;;;;11.63;4.60;;;;;;;;;;5072651;28;20183;-83
2023/10/19 12:08:08;;;;;;;8.73;4.50;;;;;;;;;;5057634;28;20193;-83
2023/10/19 12:10:38;;;;;;;13.07;4.77;;;;;;;;;;5058781;28;20182;-83
2023/10/19 12:13:05;;;;;;;9.43;4.37;;;;;;;;;;5075680;28;20198;-79
2023/10/19 12:15:32;;;;;;;10.17;4.97;;;;;;;;;;5074413;28;20211;-79
2023/10/19 12:17:58;;;;;;;12.60;4.70;;;;;;;;;;5091359;28;20191;-79
2023/10/19 12:20:24;;;;;;;13.27;4.77;;;;;;;;;;5091363;28;20179;-78
2023/10/19 12:22:53;;;;;;;8.47;4.40;;;;;;;;;;5077329;28;20218;-79
2023/10/19 12:25:28;;;;;;;12.27;4.63;;;;;;;;;;5061331;28;20270;-79
2023/10/19 12:27:54;;;;;;;9.87;4.50;;;;;;;;;;5074472;28;20183;-79
2023/10/19 12:30:21;;;;;;;13.53;4.13;;;;;;;;;;5076368;28;20216;-79
2023/10/19 12:32:52;;;;;;;14.50;4.37;;;;;;;;;;5057136;28;20194;-79
2023/10/19 12:35:24;;;;;;;8.37;4.27;;;;;;;;;;5075498;28;20227;-79
2023/10/19 12:37:53;;;;;;;8.07;4.30;;;;;;;;;;5077924;28;20203;-79
2023/10/19 12:40:29;;;;;;;10.03;4.97;;;;;;;;;;5073674;28;20224;-79
2023/10/19 12:42:55;;;;;;;12.20;4.53;;;;;;;;;;5073976;28;20242;-79
2023/10/19 12:45:24;;;;;;;14.50;4.60;;;;;;;;;;5057441;28;20203;-79
2023/10/19 12:47:51;;;;;;;11.20;5.17;;;;;;;;;;5070979;28;20251;-79
2023/10/19 12:50:22;;;;;;;15.20;5.00;;;;;;;;;;5077342;28;20259;-79
2023/10/19 12:52:49;;;;;;;11.93;4.50;;;;;;;;;;5106151;22;20241;-79
2023/10/19 12:55:16;;;;;;;12.43;4.50;;;;;;;;;;5083585;28;20191;-79
2023/10/19 12:57:42;;;;;;;8.43;4.50;;;;;;;;;;5066694;28;20195;-79
2023/10/19 13:00:29;;;;;;;13.60;4.60;;;;;;;;;;5074922;28;20191;-79
2023/10/19 13:02:59;;;;;;;9.73;4.10;;;;;;;;;;5062771;28;20249;-79
2023/10/19 13:05:26;;;;;;;11.67;4.47;;;;;;;;;;5073042;28;20210;-79
2023/10/19 13:07:53;;;;;;;12.33;4.67;;;;;;;;;;5073796;28;20176;-79
2023/10/19 13:10:19;;;;;;;10.97;4.47;;;;;;;;;;5073219;28;20183;-79
2023/10/19 13:12:46;;;;;;;10.73;4.90;;;;;;;;;;5073511;28;20240;-79
2023/10/19 13:15:12;;;;;;;13.60;4.70;;;;;;;;;;5073100;28;20179;-79
2023/10/19 13:17:39;;;;;;;13.80;4.43;;;;;;;;;;5066418;28;20192;-79
2023/10/19 13:20:16;;;;;;;11.03;3.90;;;;;;;;;;5093609;28;20190;-83
2023/10/19 13:22:42;;;;;;;11.13;4.27;;;;;;;;;;5078139;28;20233;-83
2023/10/19 13:25:09;;;;;;;10.47;4.07;;;;;;;;;;5086561;28;20183;-83
2023/10/19 13:27:35;;;;;;;13.53;4.13;;;;;;;;;;5093550;28;20198;-83
2023/10/19 13:30:01;;;;;;;9.10;3.67;;;;;;;;;;5091055;28;20182;-83
2023/10/19 13:32:32;;;;;;;9.00;4.00;;;;;;;;;;5073919;28;20286;-83
2023/10/19 13:34:58;;;;;;;15.27;4.57;;;;;;;;;;5091412;28;20186;-83
2023/10/19 13:37:24;;;;;;;12.60;4.13;;;;;;;;;;5076228;28;20195;-77
2023/10/19 13:39:50;;;;;;;11.30;4.40;;;;;;;;;;5072675;28;20183;-77
2023/10/19 13:42:16;;;;;;;11.63;4.30;;;;;;;;;;5056627;28;20222;-77
2023/10/19 13:44:42;;;;;;;13.50;4.50;;;;;;;;;;5079939;28;20179;-78
2023/10/19 13:47:11;;;;;;;13.87;4.50;;;;;;;;;;5072521;28;20178;-77
2023/10/19 13:49:37;;;;;;;12.00;4.73;;;;;;;;;;5089540;28;20191;-77
2023/10/19 13:52:04;;;;;;;14.60;5.13;;;;;;;;;;5061603;28;20234;-77
2023/10/19 13:54:30;;;;;;;14.73;5.10;;;;;;;;;;5074897;28;20240;-83
2023/10/19 13:56:57;;;;;;;12.70;4.60;;;;;;;;;;5077233;28;20442;-83
2023/10/19 13:59:23;;;;;;;11.10;4.50;;;;;;;;;;5066184;28;20179;-83
2023/10/19 14:01:50;;;;;;;10.97;3.77;;;;;;;;;;5077188;28;20223;-83
2023/10/19 14:04:16;;;;;;;14.57;3.77;;;;;;;;;;5082219;28;20262;-82
2023/10/19 14:06:43;;;;;;;10.03;3.73;;;;;;;;;;5087693;28;20271;-82
2023/10/19 14:09:12;;;;;;;11.87;3.87;;;;;;;;;;5089909;28;20179;-82
2023/10/19 14:11:38;;;;;;;10.80;3.70;;;;;;;;;;5070174;28;20192;-82
2023/10/19 14:14:04;;;;;;;8.50;3.77;;;;;;;;;;5095029;28;20190;-82
2023/10/19 14:16:30;;;;;;;11.37;3.90;;;;;;;;;;5096828;28;20185;-82
2023/10/19 14:18:57;;;;;;;9.63;3.93;;;;;;;;;;5097203;28;20213;-83
2023/10/19 14:21:26;;;;;;;12.57;4.10;;;;;;;;;;5092877;28;20186;-82
2023/10/19 14:23:54;;;;;;;10.57;3.70;;;;;;;;;;5063614;28;20175;-82
2023/10/19 14:26:20;;;;;;;11.77;3.53;;;;;;;;;;5058073;28;20176;-79
2023/10/19 14:28:46;;;;;;;14.10;3.87;;;;;;;;;;5072625;28;20203;-79
2023/10/19 14:31:12;;;;;;;13.23;4.10;;;;;;;;;;5064059;28;20239;-79
2023/10/19 14:33:38;;;;;;;14.20;4.53;;;;;;;;;;5056563;28;20187;-79
2023/10/19 14:36:05;;;;;;;12.07;3.93;;;;;;;;;;5057325;28;20172;-79
2023/10/19 14:38:31;;;;;;;12.23;4.30;;;;;;;;;;5078490;28;20179;-79
2023/10/19 14:40:57;;;;;;;12.37;4.43;;;;;;;;;;5070203;28;20275;-79
2023/10/19 14:43:29;;;;;;;12.17;4.23;;;;;;;;;;5057869;28;20219;-82
2023/10/19 14:45:56;;;;;;;10.00;3.90;;;;;;;;;;5076750;28;20236;-82
2023/10/19 14:48:23;;;;;;;13.77;4.03;;;;;;;;;;5066313;28;20190;-82
2023/10/19 14:50:51;;;;;;;10.77;3.90;;;;;;;;;;5089793;28;20179;-82
2023/10/19 14:53:17;;;;;;;13.20;3.80;;;;;;;;;;5082729;28;20432;-82
2023/10/19 14:55:46;;;;;;;15.20;3.87;;;;;;;;;;5064608;28;20188;-82
2023/10/19 14:58:12;;;;;;;10.73;4.00;;;;;;;;;;5071740;28;20179;-82
2023/10/19 15:00:42;;;;;;;12.63;3.90;;;;;;;;;;5077523;28;20194;-82
2023/10/19 15:03:08;;;;;;;11.80;4.80;;;;;;;;;;5090098;28;20245;-82